sensor_id;sensor_type;location;lat;lon;timestamp;pressure;altitude;pressure_sealevel;temperature;humidity
10732;BME280;5417;42.686;23.244;2022-07-06T00:02:11;94264.41;;;22.32;79.44
10732;BME280;5417;42.686;23.244;2022-07-06T00:04:38;94258.28;;;22.25;80.25
10732;BME280;5417;42.686;23.244;2022-07-06T00:07:05;94262.75;;;22.24;79.98
10732;BME280;5417;42.686;23.244;2022-07-06T00:09:32;94261.91;;;22.17;80.53
10732;BME280;5417;42.686;23.244;2022-07-06T00:11:59;94272.50;;;22.11;80.77
10732;BME280;5417;42.686;23.244;2022-07-06T00:14:28;94270.00;;;22.02;81.25
10732;BME280;5417;42.686;23.244;2022-07-06T00:16:55;94275.34;;;22.09;81.59
10732;BME280;5417;42.686;23.244;2022-07-06T00:19:21;94271.25;;;22.07;80.25
10732;BME280;5417;42.686;23.244;2022-07-06T00:21:48;94280.22;;;22.06;80.46
10732;BME280;5417;42.686;23.244;2022-07-06T00:24:15;94283.41;;;21.94;80.93
10732;BME280;5417;42.686;23.244;2022-07-06T00:26:43;94289.72;;;21.87;80.84
10732;BME280;5417;42.686;23.244;2022-07-06T00:29:10;94288.16;;;21.71;82.01
10732;BME280;5417;42.686;23.244;2022-07-06T00:31:39;94298.56;;;21.72;82.62
10732;BME280;5417;42.686;23.244;2022-07-06T00:34:06;94301.06;;;21.81;82.10
10732;BME280;5417;42.686;23.244;2022-07-06T00:36:32;94295.06;;;21.65;81.31
10732;BME280;5417;42.686;23.244;2022-07-06T00:38:59;94292.84;;;21.69;81.41
10732;BME280;5417;42.686;23.244;2022-07-06T00:41:26;94290.59;;;21.66;81.87
10732;BME280;5417;42.686;23.244;2022-07-06T00:43:55;94292.41;;;21.65;81.90
10732;BME280;5417;42.686;23.244;2022-07-06T00:46:27;94294.06;;;21.66;81.41
10732;BME280;5417;42.686;23.244;2022-07-06T00:48:56;94293.47;;;21.71;82.06
10732;BME280;5417;42.686;23.244;2022-07-06T00:51:26;94286.31;;;21.65;81.69
10732;BME280;5417;42.686;23.244;2022-07-06T00:53:55;94274.84;;;21.58;82.21
10732;BME280;5417;42.686;23.244;2022-07-06T00:56:29;94279.91;;;21.53;82.47
10732;BME280;5417;42.686;23.244;2022-07-06T00:58:56;94261.16;;;21.48;82.85
10732;BME280;5417;42.686;23.244;2022-07-06T01:01:23;94259.91;;;21.44;83.02
10732;BME280;5417;42.686;23.244;2022-07-06T01:03:50;94249.13;;;21.45;83.98
10732;BME280;5417;42.686;23.244;2022-07-06T01:06:18;94247.31;;;21.52;83.91
10732;BME280;5417;42.686;23.244;2022-07-06T01:08:45;94244.09;;;21.57;83.80
10732;BME280;5417;42.686;23.244;2022-07-06T01:11:12;94245.16;;;21.69;83.11
10732;BME280;5417;42.686;23.244;2022-07-06T01:13:40;94254.56;;;21.78;81.54
10732;BME280;5417;42.686;23.244;2022-07-06T01:16:07;94257.03;;;21.80;81.52
10732;BME280;5417;42.686;23.244;2022-07-06T01:18:34;94252.91;;;21.70;82.02
10732;BME280;5417;42.686;23.244;2022-07-06T01:21:10;94242.91;;;21.66;82.22
10732;BME280;5417;42.686;23.244;2022-07-06T01:23:41;94252.91;;;21.70;82.28
10732;BME280;5417;42.686;23.244;2022-07-06T01:26:10;94250.03;;;21.65;82.77
10732;BME280;5417;42.686;23.244;2022-07-06T01:28:37;94249.41;;;21.63;82.93
10732;BME280;5417;42.686;23.244;2022-07-06T01:31:04;94252.09;;;21.70;82.08
10732;BME280;5417;42.686;23.244;2022-07-06T01:33:32;94251.88;;;21.65;81.46
10732;BME280;5417;42.686;23.244;2022-07-06T01:35:59;94249.38;;;21.57;81.30
10732;BME280;5417;42.686;23.244;2022-07-06T01:38:27;94249.00;;;21.60;80.93
10732;BME280;5417;42.686;23.244;2022-07-06T01:40:54;94252.84;;;21.57;81.10
10732;BME280;5417;42.686;23.244;2022-07-06T01:43:21;94250.63;;;21.61;81.17
10732;BME280;5417;42.686;23.244;2022-07-06T01:45:48;94246.53;;;21.58;81.75
10732;BME280;5417;42.686;23.244;2022-07-06T01:48:15;94250.00;;;21.59;80.67
10732;BME280;5417;42.686;23.244;2022-07-06T01:50:42;94237.34;;;21.54;79.41
10732;BME280;5417;42.686;23.244;2022-07-06T01:53:09;94248.13;;;21.53;80.28
10732;BME280;5417;42.686;23.244;2022-07-06T01:55:40;94256.91;;;21.53;80.01
10732;BME280;5417;42.686;23.244;2022-07-06T01:58:07;94262.84;;;21.62;78.95
10732;BME280;5417;42.686;23.244;2022-07-06T02:00:34;94255.09;;;21.60;78.77
10732;BME280;5417;42.686;23.244;2022-07-06T02:03:01;94250.44;;;21.62;77.71
10732;BME280;5417;42.686;23.244;2022-07-06T02:05:28;94252.47;;;21.60;77.57
10732;BME280;5417;42.686;23.244;2022-07-06T02:07:55;94251.22;;;21.56;77.46
10732;BME280;5417;42.686;23.244;2022-07-06T02:10:21;94257.97;;;21.65;76.91
10732;BME280;5417;42.686;23.244;2022-07-06T02:12:50;94250.44;;;21.62;77.15
10732;BME280;5417;42.686;23.244;2022-07-06T02:15:17;94249.53;;;21.49;77.34
10732;BME280;5417;42.686;23.244;2022-07-06T02:17:44;94250.94;;;21.45;78.27
10732;BME280;5417;42.686;23.244;2022-07-06T02:20:11;94250.13;;;21.44;78.03
10732;BME280;5417;42.686;23.244;2022-07-06T02:22:38;94249.31;;;21.44;77.68
10732;BME280;5417;42.686;23.244;2022-07-06T02:25:05;94253.78;;;21.43;77.25
10732;BME280;5417;42.686;23.244;2022-07-06T02:27:32;94245.47;;;21.46;77.05
10732;BME280;5417;42.686;23.244;2022-07-06T02:30:00;94250.38;;;21.49;77.37
10732;BME280;5417;42.686;23.244;2022-07-06T02:32:27;94244.44;;;21.47;77.04
10732;BME280;5417;42.686;23.244;2022-07-06T02:34:54;94250.78;;;21.53;77.44
10732;BME280;5417;42.686;23.244;2022-07-06T02:37:21;94247.31;;;21.52;76.68
10732;BME280;5417;42.686;23.244;2022-07-06T02:39:48;94240.00;;;21.54;76.45
10732;BME280;5417;42.686;23.244;2022-07-06T02:42:15;94249.63;;;21.62;74.95
10732;BME280;5417;42.686;23.244;2022-07-06T02:44:41;94240.66;;;21.63;75.37
10732;BME280;5417;42.686;23.244;2022-07-06T02:47:10;94237.00;;;21.64;75.32
10732;BME280;5417;42.686;23.244;2022-07-06T02:49:37;94248.19;;;21.66;75.20
10732;BME280;5417;42.686;23.244;2022-07-06T02:52:04;94245.56;;;21.66;74.38
10732;BME280;5417;42.686;23.244;2022-07-06T02:54:31;94246.19;;;21.68;73.87
10732;BME280;5417;42.686;23.244;2022-07-06T02:56:58;94251.69;;;21.73;73.96
10732;BME280;5417;42.686;23.244;2022-07-06T02:59:25;94244.78;;;21.72;74.71
10732;BME280;5417;42.686;23.244;2022-07-06T03:01:51;94249.06;;;21.73;74.70
10732;BME280;5417;42.686;23.244;2022-07-06T03:04:20;94245.81;;;21.78;73.57
10732;BME280;5417;42.686;23.244;2022-07-06T03:06:47;94241.34;;;21.78;73.10
10732;BME280;5417;42.686;23.244;2022-07-06T03:09:13;94241.72;;;21.75;74.64
10732;BME280;5417;42.686;23.244;2022-07-06T03:11:40;94249.66;;;21.75;74.87
10732;BME280;5417;42.686;23.244;2022-07-06T03:14:07;94248.63;;;21.69;74.21
10732;BME280;5417;42.686;23.244;2022-07-06T03:16:34;94254.97;;;21.75;74.02
10732;BME280;5417;42.686;23.244;2022-07-06T03:19:01;94253.94;;;21.69;73.25
10732;BME280;5417;42.686;23.244;2022-07-06T03:21:30;94263.50;;;21.70;72.72
10732;BME280;5417;42.686;23.244;2022-07-06T03:23:56;94261.03;;;21.62;71.23
10732;BME280;5417;42.686;23.244;2022-07-06T03:26:23;94257.13;;;21.58;73.01
10732;BME280;5417;42.686;23.244;2022-07-06T03:28:50;94269.00;;;21.69;71.21
10732;BME280;5417;42.686;23.244;2022-07-06T03:31:17;94267.75;;;21.65;71.13
10732;BME280;5417;42.686;23.244;2022-07-06T03:33:44;94276.34;;;21.67;71.25
10732;BME280;5417;42.686;23.244;2022-07-06T03:36:11;94269.44;;;21.72;71.51
10732;BME280;5417;42.686;23.244;2022-07-06T03:38:39;94274.38;;;21.82;71.63
10732;BME280;5417;42.686;23.244;2022-07-06T03:41:06;94273.53;;;21.75;71.50
10732;BME280;5417;42.686;23.244;2022-07-06T03:43:33;94281.84;;;21.72;72.73
10732;BME280;5417;42.686;23.244;2022-07-06T03:46:00;94280.06;;;21.79;71.06
10732;BME280;5417;42.686;23.244;2022-07-06T03:48:27;94288.81;;;21.80;72.26
10732;BME280;5417;42.686;23.244;2022-07-06T03:50:54;94285.66;;;21.91;70.14
10732;BME280;5417;42.686;23.244;2022-07-06T03:53:21;94282.13;;;21.84;69.56
10732;BME280;5417;42.686;23.244;2022-07-06T03:55:50;94280.03;;;21.72;70.63
10732;BME280;5417;42.686;23.244;2022-07-06T03:58:31;94278.41;;;21.78;69.67
10732;BME280;5417;42.686;23.244;2022-07-06T04:00:58;94284.03;;;21.62;69.60
10732;BME280;5417;42.686;23.244;2022-07-06T04:03:25;94290.59;;;21.66;70.11
10732;BME280;5417;42.686;23.244;2022-07-06T04:05:52;94289.59;;;21.73;71.05
10732;BME280;5417;42.686;23.244;2022-07-06T04:08:19;94294.72;;;21.75;69.97
10732;BME280;5417;42.686;23.244;2022-07-06T04:10:46;94293.28;;;21.72;70.17
10732;BME280;5417;42.686;23.244;2022-07-06T04:13:14;94290.66;;;21.79;71.02
10732;BME280;5417;42.686;23.244;2022-07-06T04:15:41;94290.75;;;21.92;71.07
10732;BME280;5417;42.686;23.244;2022-07-06T04:18:08;94287.94;;;22.00;70.73
10732;BME280;5417;42.686;23.244;2022-07-06T04:20:35;94295.31;;;22.05;70.11
10732;BME280;5417;42.686;23.244;2022-07-06T04:23:03;94294.31;;;22.06;69.56
10732;BME280;5417;42.686;23.244;2022-07-06T04:25:31;94296.34;;;22.04;69.92
10732;BME280;5417;42.686;23.244;2022-07-06T04:27:58;94300.44;;;22.07;69.95
10732;BME280;5417;42.686;23.244;2022-07-06T04:30:26;94309.03;;;22.15;69.25
10732;BME280;5417;42.686;23.244;2022-07-06T04:32:53;94311.28;;;22.18;69.74
10732;BME280;5417;42.686;23.244;2022-07-06T04:35:21;94316.22;;;22.28;69.37
10732;BME280;5417;42.686;23.244;2022-07-06T04:37:48;94321.25;;;22.16;70.26
10732;BME280;5417;42.686;23.244;2022-07-06T04:40:15;94324.78;;;21.89;71.05
10732;BME280;5417;42.686;23.244;2022-07-06T04:42:44;94315.13;;;21.47;72.83
10732;BME280;5417;42.686;23.244;2022-07-06T04:45:11;94335.06;;;21.00;76.12
10732;BME280;5417;42.686;23.244;2022-07-06T04:47:39;94341.50;;;20.91;77.41
10732;BME280;5417;42.686;23.244;2022-07-06T04:50:07;94343.59;;;20.95;77.42
10732;BME280;5417;42.686;23.244;2022-07-06T04:52:34;94354.84;;;21.25;76.72
10732;BME280;5417;42.686;23.244;2022-07-06T04:55:00;94349.44;;;21.12;76.49
10732;BME280;5417;42.686;23.244;2022-07-06T04:57:29;94354.09;;;21.31;76.36
10732;BME280;5417;42.686;23.244;2022-07-06T04:59:56;94354.16;;;21.94;74.65
10732;BME280;5417;42.686;23.244;2022-07-06T05:02:23;94359.88;;;22.32;71.30
10732;BME280;5417;42.686;23.244;2022-07-06T05:04:51;94358.41;;;22.23;70.94
10732;BME280;5417;42.686;23.244;2022-07-06T05:07:18;94364.53;;;22.23;70.60
10732;BME280;5417;42.686;23.244;2022-07-06T05:09:45;94358.13;;;22.04;70.65
10732;BME280;5417;42.686;23.244;2022-07-06T05:12:12;94366.00;;;21.98;71.57
10732;BME280;5417;42.686;23.244;2022-07-06T05:14:39;94367.56;;;21.86;72.40
10732;BME280;5417;42.686;23.244;2022-07-06T05:17:06;94370.56;;;21.83;72.59
10732;BME280;5417;42.686;23.244;2022-07-06T05:19:33;94375.00;;;21.76;73.04
10732;BME280;5417;42.686;23.244;2022-07-06T05:22:01;94377.03;;;21.73;73.24
10732;BME280;5417;42.686;23.244;2022-07-06T05:24:28;94377.34;;;21.85;72.64
10732;BME280;5417;42.686;23.244;2022-07-06T05:26:55;94375.16;;;21.67;72.34
10732;BME280;5417;42.686;23.244;2022-07-06T05:29:22;94376.19;;;21.66;73.54
10732;BME280;5417;42.686;23.244;2022-07-06T05:31:48;94372.28;;;21.62;73.26
10732;BME280;5417;42.686;23.244;2022-07-06T05:34:15;94379.44;;;21.96;72.62
10732;BME280;5417;42.686;23.244;2022-07-06T05:36:42;94383.28;;;22.22;71.37
10732;BME280;5417;42.686;23.244;2022-07-06T05:39:11;94391.09;;;22.36;70.64
10732;BME280;5417;42.686;23.244;2022-07-06T05:41:37;94381.88;;;22.26;69.13
10732;BME280;5417;42.686;23.244;2022-07-06T05:44:04;94386.88;;;22.42;70.02
10732;BME280;5417;42.686;23.244;2022-07-06T05:46:31;94386.78;;;22.77;70.24
10732;BME280;5417;42.686;23.244;2022-07-06T05:48:58;94387.72;;;23.04;67.27
10732;BME280;5417;42.686;23.244;2022-07-06T05:51:42;94397.03;;;22.86;66.77
10732;BME280;5417;42.686;23.244;2022-07-06T05:54:10;94396.97;;;22.73;67.31
10732;BME280;5417;42.686;23.244;2022-07-06T05:56:37;94393.94;;;22.76;67.91
10732;BME280;5417;42.686;23.244;2022-07-06T05:59:04;94382.47;;;22.69;68.06
10732;BME280;5417;42.686;23.244;2022-07-06T06:01:31;94392.25;;;22.62;68.03
10732;BME280;5417;42.686;23.244;2022-07-06T06:03:58;94389.41;;;22.63;68.09
10732;BME280;5417;42.686;23.244;2022-07-06T06:06:26;94387.78;;;22.69;68.38
10732;BME280;5417;42.686;23.244;2022-07-06T06:08:53;94387.97;;;22.67;68.31
10732;BME280;5417;42.686;23.244;2022-07-06T06:11:21;94391.22;;;22.56;68.72
10732;BME280;5417;42.686;23.244;2022-07-06T06:13:48;94384.34;;;22.27;70.25
10732;BME280;5417;42.686;23.244;2022-07-06T06:16:15;94397.50;;;22.08;71.61
10732;BME280;5417;42.686;23.244;2022-07-06T06:18:42;94380.75;;;21.79;73.33
10732;BME280;5417;42.686;23.244;2022-07-06T06:21:09;94386.50;;;21.55;74.14
10732;BME280;5417;42.686;23.244;2022-07-06T06:23:37;94381.56;;;21.52;73.86
10732;BME280;5417;42.686;23.244;2022-07-06T06:26:04;94383.84;;;21.55;75.28
10732;BME280;5417;42.686;23.244;2022-07-06T06:28:32;94383.53;;;21.43;75.69
10732;BME280;5417;42.686;23.244;2022-07-06T06:30:59;94375.41;;;21.45;75.87
10732;BME280;5417;42.686;23.244;2022-07-06T06:33:26;94378.69;;;21.47;75.30
10732;BME280;5417;42.686;23.244;2022-07-06T06:35:53;94377.78;;;21.61;75.93
10732;BME280;5417;42.686;23.244;2022-07-06T06:38:22;94369.97;;;21.53;76.45
10732;BME280;5417;42.686;23.244;2022-07-06T06:40:51;94375.22;;;21.46;75.26
10732;BME280;5417;42.686;23.244;2022-07-06T06:43:18;94375.56;;;21.36;75.94
10732;BME280;5417;42.686;23.244;2022-07-06T06:45:46;94372.56;;;21.46;75.60
10732;BME280;5417;42.686;23.244;2022-07-06T06:48:13;94379.31;;;21.49;75.62
10732;BME280;5417;42.686;23.244;2022-07-06T06:50:40;94367.91;;;21.48;75.85
10732;BME280;5417;42.686;23.244;2022-07-06T06:53:07;94374.84;;;21.49;75.38
10732;BME280;5417;42.686;23.244;2022-07-06T06:55:34;94367.75;;;21.56;74.72
10732;BME280;5417;42.686;23.244;2022-07-06T06:58:01;94367.47;;;21.45;74.55
10732;BME280;5417;42.686;23.244;2022-07-06T07:00:28;94358.84;;;21.36;74.50
10732;BME280;5417;42.686;23.244;2022-07-06T07:03:03;94369.50;;;21.42;74.92
10732;BME280;5417;42.686;23.244;2022-07-06T07:05:30;94364.44;;;21.48;74.97
10732;BME280;5417;42.686;23.244;2022-07-06T07:08:02;94366.22;;;21.40;75.36
10732;BME280;5417;42.686;23.244;2022-07-06T07:10:29;94367.09;;;21.26;76.68
10732;BME280;5417;42.686;23.244;2022-07-06T07:12:58;94367.47;;;21.23;76.97
10732;BME280;5417;42.686;23.244;2022-07-06T07:15:25;94359.13;;;21.05;76.81
10732;BME280;5417;42.686;23.244;2022-07-06T07:17:54;94372.00;;;21.29;76.61
10732;BME280;5417;42.686;23.244;2022-07-06T07:20:22;94372.09;;;21.36;74.87
10732;BME280;5417;42.686;23.244;2022-07-06T07:22:50;94363.31;;;21.63;77.18
10732;BME280;5417;42.686;23.244;2022-07-06T07:25:19;94355.19;;;21.65;74.83
10732;BME280;5417;42.686;23.244;2022-07-06T07:27:46;94356.84;;;21.72;73.45
10732;BME280;5417;42.686;23.244;2022-07-06T07:32:59;94356.91;;;21.51;73.49
10732;BME280;5417;42.686;23.244;2022-07-06T07:35:36;94370.41;;;21.56;74.32
10732;BME280;5417;42.686;23.244;2022-07-06T07:38:03;94365.25;;;21.48;74.97
10732;BME280;5417;42.686;23.244;2022-07-06T07:40:31;94366.84;;;21.42;74.31
10732;BME280;5417;42.686;23.244;2022-07-06T07:42:58;94361.75;;;21.41;74.87
10732;BME280;5417;42.686;23.244;2022-07-06T07:45:25;94364.00;;;21.44;76.16
10732;BME280;5417;42.686;23.244;2022-07-06T07:47:53;94362.94;;;21.38;75.60
10732;BME280;5417;42.686;23.244;2022-07-06T07:50:20;94361.97;;;21.46;75.95
10732;BME280;5417;42.686;23.244;2022-07-06T07:52:48;94367.03;;;21.41;75.61
10732;BME280;5417;42.686;23.244;2022-07-06T07:55:15;94361.22;;;21.52;76.09
10732;BME280;5417;42.686;23.244;2022-07-06T07:57:42;94360.31;;;21.73;74.58
10732;BME280;5417;42.686;23.244;2022-07-06T08:00:10;94362.88;;;21.88;73.88
10732;BME280;5417;42.686;23.244;2022-07-06T08:02:37;94362.59;;;22.04;74.12
10732;BME280;5417;42.686;23.244;2022-07-06T08:05:07;94350.00;;;22.13;73.00
10732;BME280;5417;42.686;23.244;2022-07-06T08:07:38;94361.78;;;22.45;74.73
10732;BME280;5417;42.686;23.244;2022-07-06T08:10:07;94365.56;;;22.77;73.67
10732;BME280;5417;42.686;23.244;2022-07-06T08:12:36;94358.72;;;23.02;70.24
10732;BME280;5417;42.686;23.244;2022-07-06T08:15:03;94361.78;;;23.06;69.45
10732;BME280;5417;42.686;23.244;2022-07-06T08:17:30;94363.44;;;23.40;69.46
10732;BME280;5417;42.686;23.244;2022-07-06T08:19:57;94350.81;;;23.62;67.99
10732;BME280;5417;42.686;23.244;2022-07-06T08:22:24;94364.50;;;23.78;67.43
10732;BME280;5417;42.686;23.244;2022-07-06T08:24:52;94358.78;;;23.42;66.71
10732;BME280;5417;42.686;23.244;2022-07-06T08:27:20;94361.59;;;23.07;68.59
10732;BME280;5417;42.686;23.244;2022-07-06T08:29:47;94358.53;;;23.17;70.18
10732;BME280;5417;42.686;23.244;2022-07-06T08:32:14;94359.34;;;23.37;70.19
10732;BME280;5417;42.686;23.244;2022-07-06T08:34:41;94358.16;;;23.53;69.28
10732;BME280;5417;42.686;23.244;2022-07-06T08:37:09;94359.78;;;23.87;69.72
10732;BME280;5417;42.686;23.244;2022-07-06T08:39:36;94354.84;;;24.10;67.08
10732;BME280;5417;42.686;23.244;2022-07-06T08:42:04;94350.69;;;24.34;66.81
10732;BME280;5417;42.686;23.244;2022-07-06T08:44:35;94360.31;;;24.35;64.58
10732;BME280;5417;42.686;23.244;2022-07-06T08:47:05;94354.31;;;24.53;65.42
10732;BME280;5417;42.686;23.244;2022-07-06T08:49:33;94358.81;;;24.91;65.48
10732;BME280;5417;42.686;23.244;2022-07-06T08:52:03;94363.03;;;25.43;64.23
10732;BME280;5417;42.686;23.244;2022-07-06T08:54:31;94354.91;;;25.63;61.73
10732;BME280;5417;42.686;23.244;2022-07-06T08:56:58;94353.00;;;25.13;61.09
10732;BME280;5417;42.686;23.244;2022-07-06T08:59:26;94356.97;;;24.53;63.77
10732;BME280;5417;42.686;23.244;2022-07-06T09:01:55;94355.19;;;24.34;64.21
10732;BME280;5417;42.686;23.244;2022-07-06T09:04:22;94364.19;;;24.39;66.13
10732;BME280;5417;42.686;23.244;2022-07-06T09:06:50;94354.75;;;24.50;65.04
10732;BME280;5417;42.686;23.244;2022-07-06T09:09:20;94355.13;;;24.53;63.28
10732;BME280;5417;42.686;23.244;2022-07-06T09:11:48;94359.44;;;24.54;64.62
10732;BME280;5417;42.686;23.244;2022-07-06T09:14:15;94355.59;;;24.24;63.42
10732;BME280;5417;42.686;23.244;2022-07-06T09:16:42;94361.97;;;24.16;64.82
10732;BME280;5417;42.686;23.244;2022-07-06T09:19:12;94356.06;;;24.08;64.24
10732;BME280;5417;42.686;23.244;2022-07-06T09:21:39;94352.81;;;23.86;66.39
10732;BME280;5417;42.686;23.244;2022-07-06T09:24:09;94351.81;;;23.74;65.24
10732;BME280;5417;42.686;23.244;2022-07-06T09:26:37;94357.56;;;23.71;65.87
10732;BME280;5417;42.686;23.244;2022-07-06T09:29:04;94353.06;;;23.65;65.61
10732;BME280;5417;42.686;23.244;2022-07-06T09:31:32;94360.63;;;23.68;67.33
10732;BME280;5417;42.686;23.244;2022-07-06T09:34:01;94358.13;;;23.86;67.27
10732;BME280;5417;42.686;23.244;2022-07-06T09:36:39;94359.97;;;23.92;66.03
10732;BME280;5417;42.686;23.244;2022-07-06T09:39:20;94362.00;;;24.10;65.87
10732;BME280;5417;42.686;23.244;2022-07-06T09:41:48;94358.13;;;24.06;65.96
10732;BME280;5417;42.686;23.244;2022-07-06T09:44:20;94348.94;;;24.02;65.68
10732;BME280;5417;42.686;23.244;2022-07-06T09:46:48;94352.63;;;23.81;65.19
10732;BME280;5417;42.686;23.244;2022-07-06T09:49:17;94340.97;;;23.82;64.22
10732;BME280;5417;42.686;23.244;2022-07-06T09:51:47;94344.44;;;24.02;64.33
10732;BME280;5417;42.686;23.244;2022-07-06T09:54:15;94337.28;;;23.96;64.76
10732;BME280;5417;42.686;23.244;2022-07-06T09:56:44;94342.00;;;23.94;64.32
10732;BME280;5417;42.686;23.244;2022-07-06T09:59:15;94346.06;;;23.97;64.92
10732;BME280;5417;42.686;23.244;2022-07-06T10:01:42;94348.72;;;23.97;63.49
10732;BME280;5417;42.686;23.244;2022-07-06T10:04:10;94346.06;;;23.97;63.67
10732;BME280;5417;42.686;23.244;2022-07-06T10:06:38;94346.06;;;23.83;63.67
10732;BME280;5417;42.686;23.244;2022-07-06T10:09:08;94338.13;;;23.77;64.76
10732;BME280;5417;42.686;23.244;2022-07-06T10:11:38;94341.41;;;23.66;64.58
10732;BME280;5417;42.686;23.244;2022-07-06T10:14:07;94340.78;;;23.44;65.08
10732;BME280;5417;42.686;23.244;2022-07-06T10:16:35;94335.69;;;23.55;65.34
10732;BME280;5417;42.686;23.244;2022-07-06T10:19:06;94345.88;;;23.52;66.92
10732;BME280;5417;42.686;23.244;2022-07-06T10:21:35;94336.06;;;23.39;65.67
10732;BME280;5417;42.686;23.244;2022-07-06T10:24:04;94330.34;;;23.75;66.80
10732;BME280;5417;42.686;23.244;2022-07-06T10:26:34;94329.50;;;23.88;66.76
10732;BME280;5417;42.686;23.244;2022-07-06T10:29:02;94326.63;;;23.89;63.59
10732;BME280;5417;42.686;23.244;2022-07-06T10:31:31;94319.50;;;23.83;63.37
10732;BME280;5417;42.686;23.244;2022-07-06T10:34:00;94327.25;;;23.91;64.48
10732;BME280;5417;42.686;23.244;2022-07-06T10:36:28;94318.06;;;23.94;62.59
10732;BME280;5417;42.686;23.244;2022-07-06T10:38:56;94315.38;;;24.07;64.55
10732;BME280;5417;42.686;23.244;2022-07-06T10:41:31;94321.25;;;24.22;62.85
10732;BME280;5417;42.686;23.244;2022-07-06T10:44:14;94323.69;;;24.31;62.46
10732;BME280;5417;42.686;23.244;2022-07-06T10:46:50;94318.56;;;24.36;62.90
10732;BME280;5417;42.686;23.244;2022-07-06T10:49:17;94315.09;;;24.29;62.49
10732;BME280;5417;42.686;23.244;2022-07-06T10:51:44;94319.38;;;24.36;62.07
10732;BME280;5417;42.686;23.244;2022-07-06T10:54:11;94316.53;;;24.24;61.62
10732;BME280;5417;42.686;23.244;2022-07-06T10:56:39;94314.66;;;24.38;61.15
10732;BME280;5417;42.686;23.244;2022-07-06T10:59:10;94312.03;;;24.32;60.46
10732;BME280;5417;42.686;23.244;2022-07-06T11:01:38;94307.53;;;24.32;61.63
10732;BME280;5417;42.686;23.244;2022-07-06T11:04:07;94319.03;;;24.13;62.11
10732;BME280;5417;42.686;23.244;2022-07-06T11:06:37;94312.06;;;24.12;62.25
10732;BME280;5417;42.686;23.244;2022-07-06T11:09:07;94310.44;;;24.11;62.45
10732;BME280;5417;42.686;23.244;2022-07-06T11:11:40;94317.63;;;24.04;62.79
10732;BME280;5417;42.686;23.244;2022-07-06T11:14:13;94316.22;;;23.95;62.92
10732;BME280;5417;42.686;23.244;2022-07-06T11:17:00;94319.69;;;23.95;62.54
10732;BME280;5417;42.686;23.244;2022-07-06T11:19:28;94311.88;;;24.07;60.37
10732;BME280;5417;42.686;23.244;2022-07-06T11:21:57;94314.72;;;24.12;61.30
10732;BME280;5417;42.686;23.244;2022-07-06T11:24:27;94303.13;;;24.00;60.41
10732;BME280;5417;42.686;23.244;2022-07-06T11:26:57;94306.81;;;23.99;60.58
10732;BME280;5417;42.686;23.244;2022-07-06T11:29:26;94303.28;;;24.11;60.94
10732;BME280;5417;42.686;23.244;2022-07-06T11:31:56;94297.09;;;24.24;60.72
10732;BME280;5417;42.686;23.244;2022-07-06T11:34:25;94300.34;;;24.33;59.65
10732;BME280;5417;42.686;23.244;2022-07-06T11:36:55;94297.41;;;24.54;60.18
10732;BME280;5417;42.686;23.244;2022-07-06T11:39:26;94299.81;;;24.62;57.42
10732;BME280;5417;42.686;23.244;2022-07-06T11:41:54;94291.19;;;24.67;59.03
10732;BME280;5417;42.686;23.244;2022-07-06T11:44:29;94291.63;;;24.64;60.24
10732;BME280;5417;42.686;23.244;2022-07-06T11:46:56;94287.97;;;24.58;59.92
10732;BME280;5417;42.686;23.244;2022-07-06T11:49:26;94283.97;;;24.74;60.33
10732;BME280;5417;42.686;23.244;2022-07-06T11:51:54;94286.50;;;25.00;59.23
10732;BME280;5417;42.686;23.244;2022-07-06T11:54:24;94280.06;;;25.14;57.86
10732;BME280;5417;42.686;23.244;2022-07-06T11:56:52;94272.28;;;25.13;57.73
10732;BME280;5417;42.686;23.244;2022-07-06T11:59:21;94278.75;;;24.99;57.92
10732;BME280;5417;42.686;23.244;2022-07-06T12:01:58;94273.25;;;24.87;57.46
10732;BME280;5417;42.686;23.244;2022-07-06T12:04:25;94271.94;;;24.96;57.56
10732;BME280;5417;42.686;23.244;2022-07-06T12:06:52;94275.47;;;24.90;57.22
10732;BME280;5417;42.686;23.244;2022-07-06T12:09:19;94275.56;;;24.77;57.57
10732;BME280;5417;42.686;23.244;2022-07-06T12:11:46;94277.78;;;24.48;56.66
10732;BME280;5417;42.686;23.244;2022-07-06T12:14:15;94278.25;;;24.32;57.68
10732;BME280;5417;42.686;23.244;2022-07-06T12:16:43;94282.13;;;24.36;58.88
10732;BME280;5417;42.686;23.244;2022-07-06T12:19:12;94271.03;;;24.46;58.67
10732;BME280;5417;42.686;23.244;2022-07-06T12:21:46;94273.28;;;24.42;57.67
10732;BME280;5417;42.686;23.244;2022-07-06T12:24:20;94283.44;;;24.14;58.54
10732;BME280;5417;42.686;23.244;2022-07-06T12:26:48;94279.78;;;24.02;58.79
10732;BME280;5417;42.686;23.244;2022-07-06T12:29:15;94281.84;;;23.93;59.89
10732;BME280;5417;42.686;23.244;2022-07-06T12:31:44;94282.88;;;23.99;59.43
10732;BME280;5417;42.686;23.244;2022-07-06T12:34:17;94283.63;;;24.12;59.39
10732;BME280;5417;42.686;23.244;2022-07-06T12:36:45;94284.00;;;24.22;58.61
10732;BME280;5417;42.686;23.244;2022-07-06T12:39:20;94276.44;;;24.19;58.20
10732;BME280;5417;42.686;23.244;2022-07-06T12:41:51;94256.44;;;24.10;58.84
10732;BME280;5417;42.686;23.244;2022-07-06T12:44:19;94261.13;;;24.15;61.32
10732;BME280;5417;42.686;23.244;2022-07-06T12:46:48;94259.91;;;24.11;58.66
10732;BME280;5417;42.686;23.244;2022-07-06T12:49:19;94258.81;;;24.25;58.65
10732;BME280;5417;42.686;23.244;2022-07-06T12:51:52;94246.34;;;24.32;57.72
10732;BME280;5417;42.686;23.244;2022-07-06T12:54:19;94240.63;;;24.29;58.73
10732;BME280;5417;42.686;23.244;2022-07-06T12:56:59;94249.00;;;24.32;59.38
10732;BME280;5417;42.686;23.244;2022-07-06T12:59:27;94240.78;;;24.34;58.43
10732;BME280;5417;42.686;23.244;2022-07-06T13:01:54;94245.50;;;24.32;58.21
10732;BME280;5417;42.686;23.244;2022-07-06T13:04:24;94237.31;;;24.33;57.80
10732;BME280;5417;42.686;23.244;2022-07-06T13:06:53;94237.38;;;24.20;57.68
10732;BME280;5417;42.686;23.244;2022-07-06T13:09:20;94238.19;;;24.20;58.22